sensor_id;sensor_type;location;lat;lon;timestamp;temperature;humidity
68199;HTU21D;55021;51.554;17.044;2022-07-23T00:01:14;21.97;69.10
68199;HTU21D;55021;51.554;17.044;2022-07-23T00:16:17;21.55;71.86
68199;HTU21D;55021;51.554;17.044;2022-07-23T00:31:19;21.52;71.42
68199;HTU21D;55021;51.554;17.044;2022-07-23T00:46:22;21.20;73.75
68199;HTU21D;55021;51.554;17.044;2022-07-23T01:01:25;20.17;80.47
68199;HTU21D;55021;51.554;17.044;2022-07-23T01:16:27;19.70;82.06
68199;HTU21D;55021;51.554;17.044;2022-07-23T01:31:29;20.10;79.66
68199;HTU21D;55021;51.554;17.044;2022-07-23T01:46:32;20.48;77.18
68199;HTU21D;55021;51.554;17.044;2022-07-23T02:01:34;20.25;78.17
68199;HTU21D;55021;51.554;17.044;2022-07-23T02:16:37;20.22;77.98
68199;HTU21D;55021;51.554;17.044;2022-07-23T02:31:39;19.53;80.76
68199;HTU21D;55021;51.554;17.044;2022-07-23T02:46:42;19.00;82.92
68199;HTU21D;55021;51.554;17.044;2022-07-23T03:01:44;19.76;79.57
68199;HTU21D;55021;51.554;17.044;2022-07-23T03:16:46;20.12;78.32
68199;HTU21D;55021;51.554;17.044;2022-07-23T03:31:49;20.45;76.72
68199;HTU21D;55021;51.554;17.044;2022-07-23T03:46:51;21.21;72.38
68199;HTU21D;55021;51.554;17.044;2022-07-23T04:01:53;21.07;72.68
68199;HTU21D;55021;51.554;17.044;2022-07-23T04:16:56;21.02;75.06
68199;HTU21D;55021;51.554;17.044;2022-07-23T04:31:58;20.58;78.95
68199;HTU21D;55021;51.554;17.044;2022-07-23T04:47:01;21.77;75.35
68199;HTU21D;55021;51.554;17.044;2022-07-23T05:02:03;22.78;76.30
68199;HTU21D;55021;51.554;17.044;2022-07-23T05:17:05;23.83;73.35
68199;HTU21D;55021;51.554;17.044;2022-07-23T05:32:08;24.97;69.37
68199;HTU21D;55021;51.554;17.044;2022-07-23T05:47:13;25.40;63.16
68199;HTU21D;55021;51.554;17.044;2022-07-23T06:02:15;26.04;61.37
68199;HTU21D;55021;51.554;17.044;2022-07-23T06:17:17;26.24;58.19
68199;HTU21D;55021;51.554;17.044;2022-07-23T06:32:20;27.76;51.74
68199;HTU21D;55021;51.554;17.044;2022-07-23T06:47:22;28.18;49.50
68199;HTU21D;55021;51.554;17.044;2022-07-23T07:02:25;31.08;41.44
68199;HTU21D;55021;51.554;17.044;2022-07-23T07:17:28;32.00;37.93
68199;HTU21D;55021;51.554;17.044;2022-07-23T07:32:31;33.70;33.51
68199;HTU21D;55021;51.554;17.044;2022-07-23T07:47:33;33.26;36.53
68199;HTU21D;55021;51.554;17.044;2022-07-23T08:02:41;33.95;33.01
68199;HTU21D;55021;51.554;17.044;2022-07-23T08:17:45;34.32;33.54
68199;HTU21D;55021;51.554;17.044;2022-07-23T08:32:56;35.14;30.78
68199;HTU21D;55021;51.554;17.044;2022-07-23T08:47:59;33.16;34.35
68199;HTU21D;55021;51.554;17.044;2022-07-23T09:03:01;31.57;37.98
68199;HTU21D;55021;51.554;17.044;2022-07-23T10:32:39;26.36;92.13
68199;HTU21D;55021;51.554;17.044;2022-07-23T10:47:42;27.32;91.85
68199;HTU21D;55021;51.554;17.044;2022-07-23T11:02:46;26.86;92.37
68199;HTU21D;55021;51.554;17.044;2022-07-23T11:17:59;25.73;101.66
68199;HTU21D;55021;51.554;17.044;2022-07-23T11:48:30;28.50;79.19
68199;HTU21D;55021;51.554;17.044;2022-07-23T12:03:33;27.12;83.16
68199;HTU21D;55021;51.554;17.044;2022-07-23T12:18:36;27.63;76.22
68199;HTU21D;55021;51.554;17.044;2022-07-23T12:33:39;28.57;78.60
68199;HTU21D;55021;51.554;17.044;2022-07-23T12:48:51;28.54;71.25
68199;HTU21D;55021;51.554;17.044;2022-07-23T13:04:02;29.00;70.03
68199;HTU21D;55021;51.554;17.044;2022-07-23T13:19:05;30.17;63.10
68199;HTU21D;55021;51.554;17.044;2022-07-23T13:34:08;30.81;58.35
68199;HTU21D;55021;51.554;17.044;2022-07-23T13:49:10;29.44;63.05
68199;HTU21D;55021;51.554;17.044;2022-07-23T14:04:13;28.06;67.49
68199;HTU21D;55021;51.554;17.044;2022-07-23T14:19:15;28.03;70.07
68199;HTU21D;55021;51.554;17.044;2022-07-23T14:34:18;26.86;70.00
68199;HTU21D;55021;51.554;17.044;2022-07-23T14:49:20;27.29;70.55
68199;HTU21D;55021;51.554;17.044;2022-07-23T15:04:23;27.13;71.38
68199;HTU21D;55021;51.554;17.044;2022-07-23T15:19:25;26.91;71.29
68199;HTU21D;55021;51.554;17.044;2022-07-23T15:34:28;26.55;71.16
68199;HTU21D;55021;51.554;17.044;2022-07-23T15:49:30;26.32;68.61
68199;HTU21D;55021;51.554;17.044;2022-07-23T16:04:33;25.86;69.32
68199;HTU21D;55021;51.554;17.044;2022-07-23T16:19:35;26.07;68.80
68199;HTU21D;55021;51.554;17.044;2022-07-23T16:34:38;25.64;69.39
68199;HTU21D;55021;51.554;17.044;2022-07-23T16:49:40;25.77;68.01
68199;HTU21D;55021;51.554;17.044;2022-07-23T17:04:43;25.33;71.62
68199;HTU21D;55021;51.554;17.044;2022-07-23T17:19:45;24.68;75.92
68199;HTU21D;55021;51.554;17.044;2022-07-23T17:34:48;24.86;78.46
68199;HTU21D;55021;51.554;17.044;2022-07-23T17:49:50;24.95;73.07
68199;HTU21D;55021;51.554;17.044;2022-07-23T18:04:53;25.17;71.63
68199;HTU21D;55021;51.554;17.044;2022-07-23T18:19:55;24.64;66.29
68199;HTU21D;55021;51.554;17.044;2022-07-23T18:34:58;24.41;67.09
68199;HTU21D;55021;51.554;17.044;2022-07-23T18:50:00;23.66;71.28
68199;HTU21D;55021;51.554;17.044;2022-07-23T19:05:03;23.74;71.41
68199;HTU21D;55021;51.554;17.044;2022-07-23T19:20:07;24.14;69.84
68199;HTU21D;55021;51.554;17.044;2022-07-23T19:35:10;23.61;73.28
68199;HTU21D;55021;51.554;17.044;2022-07-23T19:50:13;23.85;72.27
68199;HTU21D;55021;51.554;17.044;2022-07-23T20:05:15;23.09;79.17
68199;HTU21D;55021;51.554;17.044;2022-07-23T20:20:18;23.00;79.07
68199;HTU21D;55021;51.554;17.044;2022-07-23T20:35:20;23.57;76.97
68199;HTU21D;55021;51.554;17.044;2022-07-23T20:50:23;22.77;82.13
68199;HTU21D;55021;51.554;17.044;2022-07-23T21:05:28;22.17;84.87
68199;HTU21D;55021;51.554;17.044;2022-07-23T21:20:31;22.29;82.48
68199;HTU21D;55021;51.554;17.044;2022-07-23T21:35:33;21.49;85.55
68199;HTU21D;55021;51.554;17.044;2022-07-23T21:50:37;21.69;83.39
68199;HTU21D;55021;51.554;17.044;2022-07-23T22:05:39;21.00;86.20
68199;HTU21D;55021;51.554;17.044;2022-07-23T22:20:42;20.76;87.25
68199;HTU21D;55021;51.554;17.044;2022-07-23T22:35:44;20.21;90.43
68199;HTU21D;55021;51.554;17.044;2022-07-23T22:50:47;20.17;89.58
68199;HTU21D;55021;51.554;17.044;2022-07-23T23:05:49;20.10;88.50
68199;HTU21D;55021;51.554;17.044;2022-07-23T23:20:51;20.29;85.12
68199;HTU21D;55021;51.554;17.044;2022-07-23T23:35:54;19.30;89.72
68199;HTU21D;55021;51.554;17.044;2022-07-23T23:50:56;19.42;90.13
